Airfield :
LOGIN :

Register | Disclaimer

   EN    FR    IT 

 










Legend :    VFR   Marginal VFR   IFR   Intensive IFR   Very Intensive IFR
Visi :
Ceiling :
>= 8 km
>= 3000ft
5 to 8 km
1000 to 3000 ft
1500m to 5 km
500 to 1000 ft
800 to 1500m
200 to 500 ft
< 800m
< 200 ft
Symbols :   Thunderstorms  Fog  Heavy snow  Heavy precipitations  Wind > 20 kt
SIGMETs :     Misc.  Thunderstorms  Icing  Turbulence  Mountain Waves  Volcanic Ashes







- Airport Elevation : 126 ft
- IATA code : WIC
- Download approach charts


EGPC - Wick

CURRENT METAR :
  • 172250Z AUTO 25003KT 9999 -RA NCD 00/M01 Q1015

EXPIRED METARs :
  • 172220Z AUTO 26004KT 9999 -RA NCD 01/M01 Q1015
  • 172150Z AUTO 24005KT 9999 -RA NCD 01/M00 Q1015
  • 172120Z AUTO 27002KT 9999 -RA NCD 00/M00 Q1015
  • 172050Z AUTO 27004KT 9999 -RA NCD 00/M01 Q1015 REFZRA
  • 172020Z AUTO 27004KT 9999 -RA NCD 00/M00 Q1015
  • 171950Z 27004KT 9999 FEW008 M00/M01 Q1015

TAF TAF EGPC
Valid from the 17 at 21:00 until the 18 at 06:00 UTC


171955Z 1721/1806 28006KT 9999 FEW010CB
TEMPO 1721/1724 4000 SHRASN
PROB40
TEMPO 1721/1724 2000 SHSN BKN012CB
PROB30
TEMPO 1803/1806 6000
ATIS : +44 1955 607 596
No reported NOTAMs for that airfield.



MET'MAP, your aeronautical weather chart ! - Copyright ORBIFLY December 2007 - Disclaimer

ORBIFLY MET'MAP TEAM :

Programming & Development : Alexandra Zaïnal
Concept & Development : Baudouin d'Aumeries
Co-Development & Prog : Marc-Olivier Méhu
Technical & hardware support : Manuel Goepfert

Contact : metmap@orbifly.com




SOURCES & CREDITS :

   NOAA